Time;durP1;ratioP1;P1;durP2;ratioP2;P2;SDS_P1;SDS_P2;PMS_P1;PMS_P2;Temp;Humidity;BMP_temperature;BMP_pressure;BME280_temperature;BME280_humidity;BME280_pressure;Samples;Min_cycle;Max_cycle;Signal;HPM_P1;HPM_P2
2021/12/01 00:01:49;;;;;;;;;;;;;;;-0.22;100.00;99638.78;5091542;28;20449;-76
2021/12/01 00:04:16;;;;;;;;;;;;;;;-0.23;100.00;99631.75;5091697;28;20044;-76
2021/12/01 00:06:45;;;;;;;;;;;;;;;-0.26;100.00;99631.06;5091810;28;19962;-76
2021/12/01 00:09:11;;;;;;;;;;;;;;;-0.22;100.00;99640.59;5093438;28;20029;-76
2021/12/01 00:11:37;;;;;;;;;;;;;;;-0.21;100.00;99640.53;5091733;28;20438;-76
2021/12/01 00:14:04;;;;;;;;;;;;;;;-0.19;100.00;99643.97;5091706;28;19963;-76
2021/12/01 00:16:30;;;;;;;;;;;;;;;-0.14;100.00;99625.03;5091486;28;20040;-76
2021/12/01 00:18:58;;;;;;;;;;;;;;;-0.12;100.00;99625.84;5091357;28;20018;-76
2021/12/01 00:21:25;;;;;;;;;;;;;;;-0.14;100.00;99624.19;5089965;28;20471;-76
2021/12/01 00:23:52;;;;;;;;;;;;;;;-0.14;100.00;99624.19;5091437;28;19957;-76
2021/12/01 00:26:18;;;;;;;;;;;;;;;-0.12;100.00;99635.63;5091142;28;20116;-76
2021/12/01 00:28:44;;;;;;;;;;;;;;;-0.12;100.00;99623.16;5091188;28;20492;-75
2021/12/01 00:31:10;;;;;;;;;;;;;;;-0.11;100.00;99624.00;5091195;28;20055;-77
2021/12/01 00:33:37;;;;;;;;;;;;;;;-0.13;100.00;99615.22;5091339;28;20047;-76
2021/12/01 00:36:05;;;;;;;;;;;;;;;-0.12;100.00;99616.94;5091130;28;20434;-76
2021/12/01 00:38:31;;;;;;;;;;;;;;;-0.17;100.00;99610.06;5091261;28;20044;-76
2021/12/01 00:40:57;;;;;;;;;;;;;;;-0.21;100.00;99603.19;5091232;28;20031;-76
2021/12/01 00:43:25;;;;;;;;;;;;;;;-0.17;100.00;99610.06;5091072;28;20390;-76
2021/12/01 00:45:54;;;;;;;;;;;;;;;-0.09;100.00;99606.13;5091017;28;19957;-76
2021/12/01 00:48:21;;;;;;;;;;;;;;;-0.02;100.00;99615.50;5093002;28;20023;-76
2021/12/01 00:50:48;;;;;;;;;;;;;;;0.01;100.00;99620.66;5094760;28;20412;-76
2021/12/01 00:53:16;;;;;;;;;;;;;;;0.03;100.00;99609.91;5094823;28;20510;-76
2021/12/01 00:55:43;;;;;;;;;;;;;;;0.03;100.00;99624.13;5094611;28;19989;-75
2021/12/01 00:58:11;;;;;;;;;;;;;;;0.05;100.00;99624.03;5094917;28;19976;-76
2021/12/01 01:00:38;;;;;;;;;;;;;;;0.09;100.00;99623.78;5094316;28;20028;-76
2021/12/01 01:03:04;;;;;;;;;;;;;;;0.13;100.00;99633.34;5076512;28;20045;-77
2021/12/01 01:05:31;;;;;;;;;;;;;;;0.14;100.00;99628.88;5094323;28;20056;-75
2021/12/01 01:07:57;;;;;;;;;;;;;;;0.11;100.00;99629.91;5076553;28;20056;-76
2021/12/01 01:10:35;;;;;;;;;;;;;;;0.11;100.00;99629.91;5094257;28;20072;-75
2021/12/01 01:18:33;;;;;;;;;;;;;;;0.09;100.00;99621.09;5093020;28;19997;-75
2021/12/01 01:21:00;;;;;;;;;;;;;;;0.11;100.00;99610.38;5094589;28;20070;-75
2021/12/01 01:23:29;;;;;;;;;;;;;;;0.11;100.00;99605.03;5094211;28;19979;-75
2021/12/01 01:25:57;;;;;;;;;;;;;;;0.11;100.00;99595.19;5094301;28;20441;-75
2021/12/01 01:28:23;;;;;;;;;;;;;;;0.14;100.00;99604.84;5094089;28;20096;-75
2021/12/01 01:30:49;;;;;;;;;;;;;;;0.12;100.00;99596.94;5094407;28;19989;-76
2021/12/01 01:33:16;;;;;;;;;;;;;;;0.11;100.00;99605.88;5093984;28;20048;-75
2021/12/01 01:35:42;;;;;;;;;;;;;;;0.12;100.00;99596.06;5093870;28;20041;-76
2021/12/01 01:38:08;;;;;;;;;;;;;;;0.19;100.00;99593.91;5093950;28;19960;-75
2021/12/01 01:40:37;;;;;;;;;;;;;;;0.23;100.00;99590.09;5093613;28;20092;-75
2021/12/01 01:43:04;;;;;;;;;;;;;;;0.25;100.00;99597.09;5093592;28;19962;-75
2021/12/01 01:45:31;;;;;;;;;;;;;;;0.29;100.00;99584.44;5093671;28;20044;-75
2021/12/01 01:48:00;;;;;;;;;;;;;;;0.35;100.00;99577.88;5093753;28;20000;-75
2021/12/01 01:50:35;;;;;;;;;;;;;;;0.38;100.00;99570.56;5093627;28;19976;-75
2021/12/01 01:53:02;;;;;;;;;;;;;;;0.41;100.00;99561.50;5093756;28;20397;-76
2021/12/01 01:55:28;;;;;;;;;;;;;;;0.39;100.00;99552.72;5093824;28;19999;-75
2021/12/01 01:57:54;;;;;;;;;;;;;;;0.38;100.00;99551.88;5093483;28;20001;-75
2021/12/01 02:00:22;;;;;;;;;;;;;;;0.37;100.00;99541.28;5092932;28;20069;-76
2021/12/01 02:02:49;;;;;;;;;;;;;;;0.30;100.00;99543.44;5075283;28;19989;-76
2021/12/01 02:05:15;;;;;;;;;;;;;;;0.22;100.00;99535.03;5099627;28;20444;-76
2021/12/01 02:07:43;;;;;;;;;;;;;;;0.15;100.00;99524.69;5093873;28;20027;-76
2021/12/01 02:10:09;;;;;;;;;;;;;;;0.09;100.00;99519.69;5093430;28;20055;-75
2021/12/01 02:12:38;;;;;;;;;;;;;;;0.04;100.00;99524.44;5093287;28;19989;-75
2021/12/01 02:15:05;;;;;;;;;;;;;;;0.03;100.00;99520.06;5093062;28;20007;-75
2021/12/01 02:17:32;;;;;;;;;;;;;;;0.03;100.00;99509.38;5093087;28;19994;-76
2021/12/01 02:20:00;;;;;;;;;;;;;;;0.07;100.00;99504.75;5093103;28;20008;-75
2021/12/01 02:22:27;;;;;;;;;;;;;;;0.08;100.00;99493.97;5093051;28;20075;-76
2021/12/01 02:24:54;;;;;;;;;;;;;;;0.10;100.00;99492.06;5092886;28;20051;-76
2021/12/01 02:27:20;;;;;;;;;;;;;;;0.11;100.00;99483.13;5092956;28;19965;-76
2021/12/01 02:29:46;;;;;;;;;;;;;;;0.13;100.00;99486.56;5074592;28;20357;-75
2021/12/01 02:32:12;;;;;;;;;;;;;;;0.16;100.00;99482.84;5074826;28;19954;-75
2021/12/01 02:34:41;;;;;;;;;;;;;;;0.21;100.00;99474.56;5092793;28;20434;-76
2021/12/01 02:37:07;;;;;;;;;;;;;;;0.22;100.00;99460.28;5092457;28;20422;-76
2021/12/01 02:39:38;;;;;;;;;;;;;;;0.20;100.00;99455.03;5092714;28;20067;-75
2021/12/01 02:42:07;;;;;;;;;;;;;;;0.17;100.00;99452.53;5092479;28;20067;-76
2021/12/01 02:44:35;;;;;;;;;;;;;;;0.11;100.00;99448.41;5092910;28;19961;-76
2021/12/01 02:47:01;;;;;;;;;;;;;;;0.05;100.00;99439.91;5092442;28;19953;-76
2021/12/01 02:49:28;;;;;;;;;;;;;;;-0.01;100.00;99430.47;5092489;28;20056;-75
2021/12/01 02:51:56;;;;;;;;;;;;;;;-0.07;100.00;99418.31;5092501;28;19957;-75
2021/12/01 02:54:22;;;;;;;;;;;;;;;-0.11;100.00;99411.44;5092397;28;19953;-76
2021/12/01 02:56:51;;;;;;;;;;;;;;;-0.13;100.00;99409.81;5092318;28;20052;-76
2021/12/01 02:59:17;;;;;;;;;;;;;;;-0.21;100.00;99415.59;5092267;28;20008;-76
2021/12/01 03:01:44;;;;;;;;;;;;;;;-0.25;100.00;99419.41;5092397;28;19979;-76
2021/12/01 03:04:11;;;;;;;;;;;;;;;-0.27;100.00;99415.94;5093080;28;20406;-76
2021/12/01 03:06:38;;;;;;;;;;;;;;;-0.26;100.00;99415.84;5092142;28;19953;-76
2021/12/01 03:09:06;;;;;;;;;;;;;;;-0.21;100.00;99415.59;5092416;28;20005;-76
2021/12/01 03:11:33;;;;;;;;;;;;;;;-0.17;100.00;99415.31;5091917;28;19998;-75
2021/12/01 03:14:01;;;;;;;;;;;;;;;-0.13;100.00;99399.13;5092672;28;19953;-75
2021/12/01 03:16:27;;;;;;;;;;;;;;;-0.11;100.00;99398.09;5091982;28;20048;-75
2021/12/01 03:18:53;;;;;;;;;;;;;;;-0.06;100.00;99392.50;5090829;28;20327;-75
2021/12/01 03:21:21;;;;;;;;;;;;;;;-0.01;100.00;99399.28;5091558;28;20330;-75
2021/12/01 03:23:47;;;;;;;;;;;;;;;0.07;100.00;99403.34;5091813;28;20379;-75
2021/12/01 03:26:13;;;;;;;;;;;;;;;0.13;100.00;99389.59;5092003;28;20052;-76
2021/12/01 03:28:40;;;;;;;;;;;;;;;0.20;100.00;99384.75;5091957;28;20007;-76
2021/12/01 03:31:08;;;;;;;;;;;;;;;0.28;100.00;99380.69;5073879;28;20384;-76
2021/12/01 03:33:34;;;;;;;;;;;;;;;0.40;100.00;99386.22;5091963;28;19957;-76
2021/12/01 03:36:04;;;;;;;;;;;;;;;0.49;100.00;99383.00;5091662;28;20057;-76
2021/12/01 03:38:30;;;;;;;;;;;;;;;0.55;100.00;99381.75;5091523;28;20422;-76
2021/12/01 03:40:59;;;;;;;;;;;;;;;0.57;100.00;99375.38;5091562;28;20423;-76
2021/12/01 03:43:26;;;;;;;;;;;;;;;0.61;100.00;99362.72;5092355;28;20036;-76
2021/12/01 03:45:53;;;;;;;;;;;;;;;0.62;100.00;99361.75;5092230;28;19964;-76
2021/12/01 03:48:21;;;;;;;;;;;;;;;0.62;100.00;99361.75;5092678;28;20022;-76
2021/12/01 03:50:49;;;;;;;;;;;;;;;0.64;100.00;99362.50;5092640;28;20266;-76
2021/12/01 03:53:16;;;;;;;;;;;;;;;0.65;100.00;99353.56;5074791;28;20444;-76
2021/12/01 03:55:43;;;;;;;;;;;;;;;0.67;100.00;99354.31;5093593;28;19953;-75
2021/12/01 03:58:10;;;;;;;;;;;;;;;0.67;100.00;99354.31;5094177;28;19953;-76
2021/12/01 04:00:36;;;;;;;;;;;;;;;0.68;100.00;99350.69;5094066;28;20433;-76
2021/12/01 04:03:02;;;;;;;;;;;;;;;0.68;100.00;99350.69;5074413;28;19980;-76
2021/12/01 04:05:30;;;;;;;;;;;;;;;0.72;100.00;99351.34;5092011;28;19953;-76
2021/12/01 04:07:57;;;;;;;;;;;;;;;0.73;100.00;99342.41;5091732;28;19957;-76
2021/12/01 04:10:24;;;;;;;;;;;;;;;0.73;100.00;99343.25;5091519;28;19969;-76
2021/12/01 04:12:51;;;;;;;;;;;;;;;0.77;100.00;99336.75;5091619;28;19984;-76
2021/12/01 04:15:18;;;;;;;;;;;;;;;0.79;100.00;99345.53;5073237;28;19988;-76
2021/12/01 04:17:44;;;;;;;;;;;;;;;0.80;100.00;99331.22;5091380;28;19996;-76
2021/12/01 04:20:13;;;;;;;;;;;;;;;0.81;100.00;99326.75;5091268;28;19972;-76
2021/12/01 04:22:40;;;;;;;;;;;;;;;0.83;100.00;99324.84;5074199;28;19977;-76
2021/12/01 04:25:07;;;;;;;;;;;;;;;0.82;100.00;99323.97;5094967;28;19954;-76
2021/12/01 04:27:34;;;;;;;;;;;;;;;0.87;100.00;99317.47;5077258;28;20011;-76
2021/12/01 04:30:00;;;;;;;;;;;;;;;0.86;100.00;99305.94;5095155;28;20067;-76
2021/12/01 04:32:26;;;;;;;;;;;;;;;0.86;100.00;99305.94;5095482;28;19957;-76
2021/12/01 04:34:53;;;;;;;;;;;;;;;0.87;100.00;99301.44;5095325;28;20571;-75
2021/12/01 04:37:19;;;;;;;;;;;;;;;0.88;100.00;99303.16;5094938;28;19953;-76
2021/12/01 04:39:47;;;;;;;;;;;;;;;0.86;100.00;99291.72;5095020;28;20027;-75
2021/12/01 04:42:13;;;;;;;;;;;;;;;0.87;100.00;99288.06;5095040;28;19973;-75
2021/12/01 04:44:40;;;;;;;;;;;;;;;0.85;100.00;99273.97;5095045;28;19954;-76
2021/12/01 04:47:09;;;;;;;;;;;;;;;0.81;100.00;99263.47;5094863;28;19997;-76
2021/12/01 04:49:37;;;;;;;;;;;;;;;0.80;100.00;99256.44;5076799;28;20068;-76
2021/12/01 04:52:05;;;;;;;;;;;;;;;0.79;100.00;99241.34;5076311;28;19983;-75
2021/12/01 04:54:31;;;;;;;;;;;;;;;0.83;100.00;99236.69;5094425;28;20510;-76
2021/12/01 04:56:59;;;;;;;;;;;;;;;0.85;100.00;99231.22;5094717;28;19996;-76
2021/12/01 04:59:25;;;;;;;;;;;;;;;0.87;100.00;99219.50;5094663;28;20035;-76
2021/12/01 05:01:52;;;;;;;;;;;;;;;0.88;100.00;99221.19;5076423;28;20026;-76
2021/12/01 05:04:19;;;;;;;;;;;;;;;0.88;100.00;99218.50;5094719;28;19953;-75
2021/12/01 05:06:45;;;;;;;;;;;;;;;0.90;100.00;99207.75;5094283;28;20445;-76
2021/12/01 05:09:12;;;;;;;;;;;;;;;0.94;100.00;99198.56;5076442;28;20023;-76
2021/12/01 05:11:38;;;;;;;;;;;;;;;0.94;100.00;99196.75;5094428;28;20309;-76
2021/12/01 05:14:06;;;;;;;;;;;;;;;0.96;100.00;99191.28;5094576;28;19957;-75
2021/12/01 05:16:32;;;;;;;;;;;;;;;1.00;100.00;99184.78;5094245;28;19980;-76
2021/12/01 05:19:00;;;;;;;;;;;;;;;1.02;100.00;99182.88;5094259;28;19972;-76
2021/12/01 05:21:26;;;;;;;;;;;;;;;1.03;100.00;99171.25;5094239;28;20052;-76
2021/12/01 05:23:52;;;;;;;;;;;;;;;1.10;100.00;99175.19;5075815;28;20390;-76
2021/12/01 05:26:19;;;;;;;;;;;;;;;1.11;100.00;99166.22;5094176;28;20016;-76
2021/12/01 05:28:46;;;;;;;;;;;;;;;1.13;100.00;99158.94;5093835;28;20421;-76
2021/12/01 05:31:16;;;;;;;;;;;;;;;1.16;100.00;99152.53;5093771;28;19960;-76
2021/12/01 05:33:43;;;;;;;;;;;;;;;1.16;100.00;99145.41;5093674;28;20432;-76
2021/12/01 05:36:10;;;;;;;;;;;;;;;1.22;100.00;99149.47;5093355;28;19953;-76
2021/12/01 05:38:36;;;;;;;;;;;;;;;1.22;100.00;99138.78;5093887;28;20317;-75
2021/12/01 05:41:03;;;;;;;;;;;;;;;1.23;100.00;99142.28;5093904;28;20047;-75
2021/12/01 05:43:30;;;;;;;;;;;;;;;1.24;100.00;99123.47;5092712;28;20037;-76
2021/12/01 05:45:56;;;;;;;;;;;;;;;1.25;100.00;99121.66;5093388;28;19968;-75
2021/12/01 05:48:24;;;;;;;;;;;;;;;1.28;100.00;99116.09;5093724;28;19954;-76
2021/12/01 05:50:50;;;;;;;;;;;;;;;1.29;100.00;99116.00;5093555;28;20094;-76
2021/12/01 05:53:16;;;;;;;;;;;;;;;1.29;100.00;99113.31;5093798;28;19998;-76
2021/12/01 05:55:43;;;;;;;;;;;;;;;1.30;100.00;99096.31;5093491;28;20375;-76
2021/12/01 05:58:09;;;;;;;;;;;;;;;1.32;100.00;99090.88;5093444;28;20008;-77
2021/12/01 06:00:36;;;;;;;;;;;;;;;1.33;100.00;99085.41;5093488;28;19972;-77
2021/12/01 06:03:02;;;;;;;;;;;;;;;1.37;100.00;99079.88;5091916;28;19976;-77
2021/12/01 06:05:30;;;;;;;;;;;;;;;1.38;100.00;99058.38;5074009;28;19975;-77
2021/12/01 06:07:56;;;;;;;;;;;;;;;1.39;100.00;99059.22;5081932;28;20040;-77
2021/12/01 06:10:23;;;;;;;;;;;;;;;1.39;100.00;99048.50;5070978;28;20353;-77
2021/12/01 06:12:49;;;;;;;;;;;;;;;1.39;100.00;99046.72;5089804;28;19962;-77
2021/12/01 06:15:17;;;;;;;;;;;;;;;1.40;100.00;99040.38;5074405;28;19957;-77
2021/12/01 06:17:44;;;;;;;;;;;;;;;1.43;100.00;99034.84;5092963;28;19968;-77
2021/12/01 06:20:11;;;;;;;;;;;;;;;1.47;100.00;99028.31;5091438;28;20027;-77
2021/12/01 06:22:39;;;;;;;;;;;;;;;1.49;100.00;99022.84;5074541;28;19977;-77
2021/12/01 06:25:06;;;;;;;;;;;;;;;1.52;100.00;99017.28;5074273;28;19996;-76
2021/12/01 06:27:32;;;;;;;;;;;;;;;1.54;100.00;99019.84;5092531;28;20014;-77
2021/12/01 06:29:59;;;;;;;;;;;;;;;1.56;100.00;99015.25;5073088;28;20438;-77
2021/12/01 06:32:25;;;;;;;;;;;;;;;1.61;100.00;99007.75;5091156;28;20127;-77
2021/12/01 06:34:52;;;;;;;;;;;;;;;1.62;100.00;99004.97;5092935;28;20405;-77
2021/12/01 06:37:18;;;;;;;;;;;;;;;1.65;100.00;98995.88;5091355;28;20426;-76
2021/12/01 06:39:47;;;;;;;;;;;;;;;1.68;100.00;98982.25;5073383;28;20026;-76
2021/12/01 06:42:13;;;;;;;;;;;;;;;1.72;100.00;98978.38;5092409;28;20076;-76
2021/12/01 06:44:39;;;;;;;;;;;;;;;1.77;100.00;98976.25;5076952;28;20322;-74
2021/12/01 06:47:06;;;;;;;;;;;;;;;1.78;100.00;98961.91;5070898;28;20350;-76
2021/12/01 06:49:35;;;;;;;;;;;;;;;1.81;100.00;98961.66;5077828;28;19974;-77
2021/12/01 06:52:01;;;;;;;;;;;;;;;1.84;100.00;98950.75;5072346;28;19960;-76
2021/12/01 06:54:28;;;;;;;;;;;;;;;1.88;100.00;98958.56;5072416;28;19954;-75
2021/12/01 06:56:56;;;;;;;;;;;;;;;1.91;100.00;98961.88;5084683;28;19962;-76
2021/12/01 06:59:22;;;;;;;;;;;;;;;1.93;100.00;98957.25;5092027;28;19969;-77
2021/12/01 07:01:48;;;;;;;;;;;;;;;1.91;100.00;98947.63;5091800;28;19961;-76
2021/12/01 07:04:15;;;;;;;;;;;;;;;1.92;100.00;98942.16;5087973;28;20052;-76
2021/12/01 07:06:42;;;;;;;;;;;;;;;1.94;100.00;98939.38;5087745;28;19963;-76
2021/12/01 07:09:10;;;;;;;;;;;;;;;1.93;100.00;98933.16;5073238;28;20000;-76
2021/12/01 07:11:37;;;;;;;;;;;;;;;1.97;100.00;98928.44;5091613;28;19957;-77
2021/12/01 07:14:05;;;;;;;;;;;;;;;1.97;100.00;98913.22;5083319;28;19957;-77
2021/12/01 07:16:31;;;;;;;;;;;;;;;2.00;100.00;98918.38;5087791;28;20381;-77
2021/12/01 07:18:57;;;;;;;;;;;;;;;2.03;100.00;98911.91;5090908;28;20030;-77
2021/12/01 07:21:24;;;;;;;;;;;;;;;2.05;100.00;98912.66;5065682;28;20003;-76
2021/12/01 07:23:50;;;;;;;;;;;;;;;2.07;100.00;98908.06;5091862;28;20068;-76
2021/12/01 07:26:16;;;;;;;;;;;;;;;2.07;100.00;98893.81;5091557;28;19953;-77
2021/12/01 07:28:43;;;;;;;;;;;;;;;2.08;100.00;98880.31;5078789;28;19956;-77
2021/12/01 07:31:10;;;;;;;;;;;;;;;2.09;100.00;98867.78;5086354;28;20382;-77
2021/12/01 07:33:39;;;;;;;;;;;;;;;2.13;100.00;98858.56;5080832;28;19958;-75
2021/12/01 07:36:06;;;;;;;;;;;;;;;2.17;100.00;98863.53;5066658;28;19961;-75
2021/12/01 07:38:32;;;;;;;;;;;;;;;2.23;100.00;98850.66;5079697;28;20051;-77
2021/12/01 07:40:59;;;;;;;;;;;;;;;2.28;100.00;98851.16;5090778;28;20072;-76
2021/12/01 07:43:25;;;;;;;;;;;;;;;2.34;100.00;98843.53;5090337;28;20010;-77
2021/12/01 07:45:52;;;;;;;;;;;;;;;2.43;100.00;98841.97;5090225;28;19960;-77
2021/12/01 07:48:20;;;;;;;;;;;;;;;2.50;100.00;98834.31;5086384;28;20043;-77
2021/12/01 07:50:46;;;;;;;;;;;;;;;2.59;100.00;98833.59;5072815;28;19968;-76
2021/12/01 07:53:12;;;;;;;;;;;;;;;2.64;100.00;98811.78;5090801;28;19964;-75
2021/12/01 07:55:39;;;;;;;;;;;;;;;2.70;100.00;98800.59;5089941;28;20018;-75
2021/12/01 07:58:06;;;;;;;;;;;;;;;2.78;100.00;98799.97;5082154;28;19963;-75
2021/12/01 08:00:32;;;;;;;;;;;;;;;2.85;100.00;98798.50;5075188;28;20350;-78
2021/12/01 08:02:58;;;;;;;;;;;;;;;2.91;100.00;98795.31;5075090;28;20020;-76
2021/12/01 08:05:26;;;;;;;;;;;;;;;2.95;100.00;98786.09;5056941;28;20487;-77
2021/12/01 08:07:53;;;;;;;;;;;;;;;3.03;100.00;98781.94;5076768;28;19991;-77
2021/12/01 08:10:22;;;;;;;;;;;;;;;3.08;100.00;98788.59;5095144;28;19969;-77
2021/12/01 08:12:48;;;;;;;;;;;;;;;3.14;100.00;98777.41;5076531;28;19983;-78
2021/12/01 08:15:15;;;;;;;;;;;;;;;3.19;100.00;98777.00;5094851;28;20470;-78
2021/12/01 08:17:41;;;;;;;;;;;;;;;3.23;100.00;98777.63;5094348;28;20014;-77
2021/12/01 08:20:08;;;;;;;;;;;;;;;3.25;100.00;98764.94;5094538;28;19975;-78
2021/12/01 08:22:36;;;;;;;;;;;;;;;3.33;100.00;98759.81;5095289;28;19992;-75
2021/12/01 08:25:03;;;;;;;;;;;;;;;3.38;100.00;98749.56;5094728;28;20016;-77
2021/12/01 08:27:30;;;;;;;;;;;;;;;3.46;100.00;98746.22;5095003;28;19965;-77
2021/12/01 08:29:57;;;;;;;;;;;;;;;3.49;100.00;98735.25;5094338;28;20023;-77
2021/12/01 08:32:23;;;;;;;;;;;;;;;3.55;100.00;98734.72;5094823;28;19965;-77
2021/12/01 08:34:51;;;;;;;;;;;;;;;3.61;100.00;98736.06;5093859;28;20402;-76
2021/12/01 08:37:18;;;;;;;;;;;;;;;3.67;100.00;98727.47;5076450;28;20365;-76
2021/12/01 08:39:48;;;;;;;;;;;;;;;3.75;100.00;98719.59;5093194;28;19993;-76
2021/12/01 08:42:14;;;;;;;;;;;;;;;3.85;100.00;98723.22;5093587;28;19957;-76
2021/12/01 08:44:44;;;;;;;;;;;;;;;3.89;100.00;98718.44;5093709;28;19969;-77
2021/12/01 08:47:11;;;;;;;;;;;;;;;3.94;100.00;98710.84;5093479;28;19999;-77
2021/12/01 08:49:37;;;;;;;;;;;;;;;4.00;100.00;98704.94;5092733;28;20016;-76
2021/12/01 08:52:04;;;;;;;;;;;;;;;4.08;100.00;98701.59;5093123;28;20048;-76
2021/12/01 08:54:30;;;;;;;;;;;;;;;4.12;100.00;98696.81;5095142;28;20406;-77
2021/12/01 08:56:58;;;;;;;;;;;;;;;4.20;100.00;98686.25;5095272;28;19968;-77
2021/12/01 08:59:24;;;;;;;;;;;;;;;4.28;100.00;98689.13;5095746;28;20054;-77
2021/12/01 09:01:51;;;;;;;;;;;;;;;4.34;100.00;98691.28;5076494;28;20028;-77
2021/12/01 09:04:17;;;;;;;;;;;;;;;4.38;100.00;98677.56;5094753;28;19974;-77
2021/12/01 09:06:44;;;;;;;;;;;;;;;4.50;100.00;98688.09;5093489;28;19991;-76
2021/12/01 09:09:17;;;;;;;;;;;;;;;4.58;100.00;98683.88;5092902;28;19968;-76
2021/12/01 09:11:43;;;;;;;;;;;;;;;4.65;100.00;98679.63;5091505;28;20225;-76
2021/12/01 09:14:11;;;;;;;;;;;;;;;4.71;100.00;98668.34;5074112;28;20032;-77
2021/12/01 09:16:37;;;;;;;;;;;;;;;4.76;100.00;98670.63;5084398;28;20047;-78
2021/12/01 09:19:04;;;;;;;;;;;;;;;4.80;100.00;98667.53;5093408;28;20497;-77
2021/12/01 09:21:30;;;;;;;;;;;;;;;4.82;100.00;98654.81;5068733;28;19995;-77
2021/12/01 09:23:56;;;;;;;;;;;;;;;4.85;100.00;98659.91;5075044;28;19972;-78
2021/12/01 09:26:23;;;;;;;;;;;;;;;4.88;100.00;98648.03;5093651;28;20395;-77
2021/12/01 09:28:49;;;;;;;;;;;;;;;4.92;100.00;98649.44;5092507;28;20063;-77
2021/12/01 09:31:17;;;;;;;;;;;;;;;4.93;100.00;98653.84;5093378;28;19984;-77
2021/12/01 09:33:43;;;;;;;;;;;;;;;4.95;100.00;98635.69;5075132;28;20007;-76
2021/12/01 09:36:09;;;;;;;;;;;;;;;4.98;100.00;98631.88;5093146;28;20019;-76
2021/12/01 09:38:36;;;;;;;;;;;;;;;4.99;100.00;98625.53;5093476;28;20005;-77
2021/12/01 09:41:02;;;;;;;;;;;;;;;5.00;100.00;98630.75;5092962;28;20015;-77
2021/12/01 09:43:31;;;;;;;;;;;;;;;5.03;100.00;98614.34;5093806;28;20005;-77
2021/12/01 09:45:59;;;;;;;;;;;;;;;5.05;100.00;98610.66;5075051;28;20244;-77
2021/12/01 09:48:27;;;;;;;;;;;;;;;5.10;100.00;98609.25;5074395;28;20058;-77
2021/12/01 09:50:54;;;;;;;;;;;;;;;5.09;100.00;98602.19;5075191;28;20030;-77
2021/12/01 09:53:21;;;;;;;;;;;;;;;5.14;100.00;98597.19;5093321;28;20421;-77
2021/12/01 09:55:47;;;;;;;;;;;;;;;5.18;100.00;98589.72;5096650;28;19988;-78
2021/12/01 09:58:16;;;;;;;;;;;;;;;5.23;100.00;98592.81;5082635;28;20048;-75
2021/12/01 10:00:43;;;;;;;;;;;;;;;5.28;100.00;98544.00;5083352;28;19972;-76
2021/12/01 10:03:30;;;;;;;;;;;;;;;5.31;100.00;98560.66;5085896;28;19975;-76
2021/12/01 10:06:03;;;;;;;;;;;;;;;5.33;100.00;98564.09;5089691;28;19956;-77
2021/12/01 10:08:30;;;;;;;;;;;;;;;5.36;100.00;98561.09;5087578;28;19956;-77
2021/12/01 10:11:17;;;;;;;;;;;;;;;5.42;100.00;98553.44;5093519;28;20352;-78
2021/12/01 10:13:44;;;;;;;;;;;;;;;5.45;100.00;98537.00;5072390;28;19956;-77
2021/12/01 10:16:11;;;;;;;;;;;;;;;5.44;100.00;98530.78;5082506;28;20400;-77
2021/12/01 10:18:40;;;;;;;;;;;;;;;5.45;100.00;98526.22;5073584;28;19964;-78
2021/12/01 10:21:09;;;;;;;;;;;;;;;5.45;100.00;98535.16;5087057;28;19952;-80
2021/12/01 10:23:35;;;;;;;;;;;;;;;5.47;100.00;98529.63;5088809;28;19979;-77
2021/12/01 10:26:13;;;;;;;;;;;;;;;5.46;100.00;98526.06;5090513;28;19956;-78
2021/12/01 10:28:41;;;;;;;;;;;;;;;5.47;100.00;98518.88;5074256;28;20443;-79
2021/12/01 10:31:07;;;;;;;;;;;;;;;5.45;100.00;98535.16;5091862;28;20421;-78
2021/12/01 10:33:34;;;;;;;;;;;;;;;5.46;100.00;98533.31;5081407;28;20340;-79
2021/12/01 10:36:03;;;;;;;;;;;;;;;5.47;100.00;98508.94;5092706;28;19956;-78
2021/12/01 10:38:32;;;;;;;;;;;;;;;5.46;100.00;98498.34;5092292;28;19960;-79
2021/12/01 10:41:02;;;;;;;;;;;;;;;5.47;100.00;98498.19;5092256;28;19960;-77
2021/12/01 10:43:35;;;;;;;;;;;;;;;5.46;100.00;98495.66;5092086;28;20014;-76
2021/12/01 10:46:05;;;;;;;;;;;;;;;5.44;100.00;98509.25;5092002;28;20341;-75
2021/12/01 10:48:32;;;;;;;;;;;;;;;5.41;100.00;98501.47;5092192;28;20008;-75
2021/12/01 10:50:58;;;;;;;;;;;;;;;5.39;100.00;98494.53;5091744;28;20050;-77
2021/12/01 10:53:26;;;;;;;;;;;;;;;5.39;100.00;98486.47;5091644;28;20377;-78
2021/12/01 10:55:54;;;;;;;;;;;;;;;5.36;100.00;98484.91;5091377;28;19962;-78
2021/12/01 10:58:20;;;;;;;;;;;;;;;5.36;100.00;98480.38;5079503;28;19991;-77
2021/12/01 11:00:48;;;;;;;;;;;;;;;5.35;100.00;98480.53;5060770;28;19970;-77
2021/12/01 11:03:16;;;;;;;;;;;;;;;5.36;100.00;98469.63;5073458;28;20434;-77
2021/12/01 11:05:43;;;;;;;;;;;;;;;5.36;100.00;98484.91;5091604;28;19996;-77
2021/12/01 11:08:11;;;;;;;;;;;;;;;5.35;100.00;98473.28;5092066;28;20000;-77
2021/12/01 11:10:38;;;;;;;;;;;;;;;5.34;100.00;98470.75;5089945;28;19971;-77
2021/12/01 11:13:05;;;;;;;;;;;;;;;5.28;100.00;98474.03;5091286;28;20000;-79
2021/12/01 11:15:32;;;;;;;;;;;;;;;5.25;100.00;98467.13;5091504;28;20376;-75
2021/12/01 11:17:59;;;;;;;;;;;;;;;5.22;100.00;98456.63;5091217;28;19988;-76
2021/12/01 11:20:33;;;;;;;;;;;;;;;5.20;100.00;98445.19;5073135;28;20047;-77
2021/12/01 11:23:08;;;;;;;;;;;;;;;5.16;100.00;98439.22;5091549;28;19955;-75
2021/12/01 11:25:35;;;;;;;;;;;;;;;5.14;100.00;98438.50;5091068;28;19970;-78
2021/12/01 11:28:04;;;;;;;;;;;;;;;5.14;100.00;98440.38;5073045;28;20020;-77
2021/12/01 11:30:30;;;;;;;;;;;;;;;5.14;100.00;98425.06;5091445;28;19979;-77
2021/12/01 11:32:57;;;;;;;;;;;;;;;5.13;100.00;98420.72;5090428;28;19999;-76
2021/12/01 11:35:23;;;;;;;;;;;;;;;5.15;100.00;98418.69;5073582;28;19956;-76
2021/12/01 11:37:54;;;;;;;;;;;;;;;5.15;100.00;98405.25;5087064;28;20257;-74
2021/12/01 11:40:21;;;;;;;;;;;;;;;5.16;100.00;98406.13;5091368;28;19976;-75
2021/12/01 11:42:47;;;;;;;;;;;;;;;5.16;100.00;98398.06;5091107;28;19987;-75
2021/12/01 11:45:15;;;;;;;;;;;;;;;5.17;100.00;98392.53;5089541;28;19968;-77
2021/12/01 11:47:46;;;;;;;;;;;;;;;5.19;100.00;98393.22;5073341;28;19956;-77
2021/12/01 11:50:16;;;;;;;;;;;;;;;5.22;100.00;98389.38;5090946;28;20078;-76
2021/12/01 11:52:47;;;;;;;;;;;;;;;5.23;100.00;98382.19;5090491;28;19955;-75
2021/12/01 11:55:14;;;;;;;;;;;;;;;5.25;100.00;98383.72;5056229;28;19981;-77
2021/12/01 11:57:41;;;;;;;;;;;;;;;5.25;100.00;98375.66;5072936;28;19960;-75
2021/12/01 12:00:08;;;;;;;;;;;;;;;5.23;100.00;98361.50;5089760;28;19976;-76
2021/12/01 12:02:39;;;;;;;;;;;;;;;5.25;100.00;98358.66;5090949;28;20030;-77
2021/12/01 12:05:15;;;;;;;;;;;;;;;5.27;100.00;98348.59;5090386;28;20009;-76
2021/12/01 12:07:44;;;;;;;;;;;;;;;5.26;100.00;98326.22;5072962;28;20005;-76
2021/12/01 12:10:15;;;;;;;;;;;;;;;5.28;100.00;98339.53;5072996;28;19976;-76
2021/12/01 12:12:55;;;;;;;;;;;;;;;5.29;100.00;98330.44;5090771;28;19958;-76
2021/12/01 12:15:38;;;;;;;;;;;;;;;5.29;100.00;98323.25;5056217;28;20439;-77
2021/12/01 12:18:06;;;;;;;;;;;;;;;5.33;100.00;98313.00;5090348;28;19990;-77
2021/12/01 12:20:38;;;;;;;;;;;;;;;5.33;100.00;98318.38;5090858;28;19972;-78
2021/12/01 12:23:08;;;;;;;;;;;;;;;5.32;100.00;98305.97;5091393;28;20481;-78
2021/12/01 12:25:37;;;;;;;;;;;;;;;5.33;100.00;98302.25;5072990;28;20341;-72
2021/12/01 12:28:19;;;;;;;;;;;;;;;5.34;100.00;98295.88;5090668;28;20349;-71
2021/12/01 12:30:46;;;;;;;;;;;;;;;5.34;100.00;98287.81;5071971;28;20301;-71
2021/12/01 12:33:17;;;;;;;;;;;;;;;5.33;100.00;98292.34;5091278;28;19982;-71
2021/12/01 12:35:45;;;;;;;;;;;;;;;5.33;100.00;98276.22;5090702;28;19960;-71
2021/12/01 12:38:11;;;;;;;;;;;;;;;5.34;100.00;98272.53;5072971;28;19958;-72
2021/12/01 12:40:39;;;;;;;;;;;;;;;5.34;100.00;98263.59;5090826;28;20015;-71
2021/12/01 12:43:06;;;;;;;;;;;;;;;5.37;100.00;98260.59;5090797;28;20010;-72
2021/12/01 12:45:33;;;;;;;;;;;;;;;5.41;100.00;98255.75;5076471;28;19979;-71
2021/12/01 12:47:59;;;;;;;;;;;;;;;5.42;100.00;98250.22;5094523;28;19958;-71
2021/12/01 12:50:27;;;;;;;;;;;;;;;5.44;100.00;98253.63;5094885;28;19970;-71
2021/12/01 12:52:54;;;;;;;;;;;;;;;5.47;100.00;98252.47;5094299;28;19952;-71